Snider, Montana
Current Conditions -  °F | °C
As of 12:53 AM on Thursday 27 Nov 2014 (Local Time) from KMLP Reporting Station
Overcast Overcast  
Wind Chill: 25°   Ceiling: 1700
Heat Index: 34°   Visibility: 10mi
Dew Point: 34°   Wind: 13mph
Humidity: 100%   Direction: 190°S
Pressure: 29.99"   Gusts: 23mph
Location:  47.6853°N, 115.247°W
Report Text: KMLP 270753Z AUTO 19011G20KT 10SM OVC017 01/01 A2999 RMK AO2 SLP123 T00110011 400171011
Loading
Personal Weather Stations






























Interactive Weather Map New forecast layout! Learn more

10-Day Weather Forecast

Advertisements
Track Severe Weather on mobile